createdAt,value
2022-08-04T00:01:34.010Z,7.57
2022-08-04T00:04:03.972Z,10.98
2022-08-04T00:06:34.514Z,6.00
2022-08-04T00:09:08.055Z,7.63
2022-08-04T00:11:35.074Z,9.82
2022-08-04T00:14:06.058Z,12.75
2022-08-04T00:16:37.588Z,7.60
2022-08-04T00:19:08.731Z,12.27
2022-08-04T00:21:36.562Z,8.97
2022-08-04T00:24:12.336Z,4.63
2022-08-04T00:26:39.694Z,8.73
2022-08-04T00:29:06.096Z,12.60
2022-08-04T00:31:53.871Z,11.10
2022-08-04T00:34:19.227Z,6.60
2022-08-04T00:36:45.983Z,11.40
2022-08-04T00:39:13.295Z,9.83
2022-08-04T00:42:01.372Z,7.50
2022-08-04T00:44:36.595Z,4.40
2022-08-04T00:47:17.349Z,9.37
2022-08-04T00:49:43.749Z,7.57
2022-08-04T00:52:32.014Z,6.53
2022-08-04T00:55:06.901Z,8.90
2022-08-04T00:57:41.471Z,13.20
2022-08-04T01:00:10.498Z,15.10
2022-08-04T01:02:38.334Z,8.10
2022-08-04T01:05:20.495Z,9.50
2022-08-04T01:07:57.545Z,10.20
2022-08-04T01:10:32.848Z,7.90
2022-08-04T01:13:17.961Z,11.20
2022-08-04T01:16:13.722Z,6.53
2022-08-04T01:18:40.080Z,8.57
2022-08-04T01:21:26.030Z,15.07
2022-08-04T01:24:10.978Z,6.77
2022-08-04T01:26:57.856Z,7.80
2022-08-04T01:29:46.942Z,7.07
2022-08-04T01:32:26.417Z,11.87
2022-08-04T01:34:56.614Z,6.47
2022-08-04T01:37:35.031Z,5.77
2022-08-04T01:40:05.512Z,11.23
2022-08-04T01:42:33.582Z,10.57
2022-08-04T01:45:04.892Z,6.93
2022-08-04T01:47:34.056Z,5.37
2022-08-04T01:50:04.407Z,6.07
2022-08-04T01:52:31.634Z,7.73
2022-08-04T01:54:58.133Z,11.57
2022-08-04T01:57:37.883Z,5.83
2022-08-04T02:00:06.795Z,5.93
2022-08-04T02:02:33.692Z,10.27
2022-08-04T02:05:00.181Z,6.80
2022-08-04T02:07:45.108Z,9.33
2022-08-04T02:10:14.506Z,8.53
2022-08-04T02:12:56.963Z,5.17
2022-08-04T02:15:38.419Z,10.80
2022-08-04T02:18:18.909Z,7.53
2022-08-04T02:20:47.038Z,5.93
2022-08-04T02:23:25.005Z,4.50
2022-08-04T02:26:00.795Z,10.20
2022-08-04T02:28:35.408Z,7.77
2022-08-04T02:31:01.759Z,6.10
2022-08-04T02:33:35.806Z,9.03
2022-08-04T02:36:03.495Z,9.87
2022-08-04T02:38:29.882Z,8.07
2022-08-04T02:40:59.181Z,4.93
2022-08-04T02:43:50.159Z,6.93
2022-08-04T02:46:18.056Z,11.77
2022-08-04T02:48:45.783Z,8.50
2022-08-04T02:51:13.154Z,6.57
2022-08-04T02:53:41.098Z,8.00
2022-08-04T02:56:08.821Z,10.70
2022-08-04T02:58:35.820Z,6.77
2022-08-04T03:01:02.522Z,10.10
2022-08-04T03:03:39.489Z,6.20
2022-08-04T03:06:11.886Z,7.37
2022-08-04T03:08:38.251Z,7.37
2022-08-04T03:11:07.749Z,8.67
2022-08-04T03:13:53.610Z,5.83
2022-08-04T03:16:23.002Z,8.93
2022-08-04T03:19:11.831Z,14.07
2022-08-04T03:22:07.002Z,9.63
2022-08-04T03:24:36.188Z,11.03
2022-08-04T03:27:14.667Z,7.60
2022-08-04T03:29:59.934Z,7.93
2022-08-04T03:32:35.443Z,6.07
2022-08-04T03:35:23.044Z,8.93
2022-08-04T03:38:00.795Z,9.13
2022-08-04T03:40:50.277Z,11.13
2022-08-04T03:43:57.115Z,8.70
2022-08-04T03:46:40.458Z,9.17
2022-08-04T03:49:09.842Z,9.13
2022-08-04T03:52:01.186Z,9.43
2022-08-04T03:55:02.928Z,5.90
2022-08-04T03:57:39.833Z,6.23
2022-08-04T04:00:10.910Z,9.33
2022-08-04T04:02:46.258Z,9.97
2022-08-04T04:05:23.999Z,8.33
2022-08-04T04:08:19.644Z,8.30
2022-08-04T04:10:54.886Z,8.83
2022-08-04T04:13:21.271Z,9.07
2022-08-04T04:15:50.114Z,9.87
2022-08-04T04:18:23.655Z,13.73
2022-08-04T04:20:59.188Z,11.63
2022-08-04T04:23:37.370Z,6.27
2022-08-04T04:26:07.181Z,6.67
2022-08-04T04:28:52.186Z,6.87
2022-08-04T04:31:37.382Z,8.20
2022-08-04T04:34:20.330Z,7.07
2022-08-04T04:36:50.894Z,17.40
2022-08-04T04:39:17.545Z,10.80
2022-08-04T04:41:43.946Z,11.30
2022-08-04T04:44:19.547Z,6.10
2022-08-04T04:47:09.287Z,7.67
2022-08-04T04:49:35.685Z,6.60
2022-08-04T04:52:11.091Z,6.30
2022-08-04T04:54:56.435Z,7.07
2022-08-04T04:57:54.401Z,6.00
2022-08-04T05:00:13.286Z,8.80
2022-08-04T05:02:39.833Z,7.73
2022-08-04T05:05:24.931Z,7.63
2022-08-04T05:07:53.193Z,11.63
2022-08-04T05:10:19.576Z,9.00
2022-08-04T05:14:36.108Z,10.03
2022-08-04T05:15:36.087Z,8.13
2022-08-04T05:18:02.891Z,9.77
2022-08-04T05:20:34.330Z,10.77
2022-08-04T05:23:09.175Z,7.13
2022-08-04T05:25:37.468Z,9.47
2022-08-04T05:28:05.786Z,6.47
2022-08-04T05:30:35.127Z,9.23
2022-08-04T05:33:09.745Z,13.13
2022-08-04T05:36:18.658Z,11.30
2022-08-04T05:38:29.771Z,8.17
2022-08-04T05:40:56.768Z,10.90
2022-08-04T05:43:23.818Z,8.80
2022-08-04T05:45:51.997Z,6.40
2022-08-04T05:48:18.885Z,6.40
2022-08-04T05:50:46.119Z,6.37
2022-08-04T05:53:13.178Z,9.20
2022-08-04T05:55:49.009Z,13.07
2022-08-04T05:58:26.803Z,12.33
2022-08-04T06:00:54.277Z,14.00
2022-08-04T06:03:21.338Z,12.00
2022-08-04T06:05:48.208Z,8.45
2022-08-04T06:08:14.680Z,7.20
2022-08-04T06:10:42.586Z,11.48
2022-08-04T06:13:46.688Z,11.25
2022-08-04T06:15:59.451Z,11.65
2022-08-04T06:19:59.308Z,8.85
2022-08-04T06:21:17.104Z,12.60
2022-08-04T06:23:53.189Z,13.68
2022-08-04T06:26:25.287Z,11.40
2022-08-04T06:28:52.921Z,8.30
2022-08-04T06:32:29.845Z,6.18
2022-08-04T06:34:30.245Z,8.60
2022-08-04T06:36:57.443Z,10.32
2022-08-04T06:39:25.293Z,13.02
2022-08-04T06:41:53.537Z,9.85
2022-08-04T06:44:40.738Z,7.15
2022-08-04T06:47:07.365Z,12.43
2022-08-04T06:49:44.205Z,11.40
2022-08-04T06:52:21.619Z,9.35
2022-08-04T06:54:48.531Z,8.50
2022-08-04T06:57:16.721Z,8.88
2022-08-04T06:59:44.268Z,7.88
2022-08-04T07:02:18.485Z,9.90
2022-08-04T07:04:44.998Z,6.50
2022-08-04T07:07:12.120Z,8.52
2022-08-04T07:09:39.259Z,7.85
2022-08-04T07:12:06.481Z,9.23
2022-08-04T07:14:36.096Z,6.88
2022-08-04T07:17:06.415Z,9.30
2022-08-04T07:19:33.260Z,9.40
2022-08-04T07:22:06.523Z,7.45
2022-08-04T07:24:46.788Z,13.07
2022-08-04T07:27:17.136Z,11.65
2022-08-04T07:29:43.775Z,10.68
2022-08-04T07:32:11.118Z,8.00
2022-08-04T07:34:38.370Z,6.18
2022-08-04T07:37:05.544Z,8.85
2022-08-04T07:39:33.039Z,10.45
2022-08-04T07:42:17.995Z,9.20
2022-08-04T07:44:45.080Z,9.90
2022-08-04T07:47:11.930Z,8.90
2022-08-04T07:49:55.001Z,11.77
2022-08-04T07:52:24.954Z,9.48
2022-08-04T07:54:51.656Z,7.88
2022-08-04T07:57:39.809Z,9.73
2022-08-04T08:00:06.057Z,11.75
2022-08-04T08:02:33.689Z,11.95
2022-08-04T08:05:00.347Z,6.97
2022-08-04T08:07:26.804Z,5.95
2022-08-04T08:09:53.312Z,6.85
2022-08-04T08:12:37.543Z,8.38
2022-08-04T08:15:08.202Z,12.43
2022-08-04T08:17:58.940Z,10.85
2022-08-04T08:20:29.732Z,11.00
2022-08-04T08:22:56.809Z,9.07
2022-08-04T08:25:23.260Z,15.45
2022-08-04T08:27:55.796Z,8.20
2022-08-04T08:30:24.007Z,15.20
2022-08-04T08:32:50.747Z,10.27
2022-08-04T08:35:17.642Z,9.15
2022-08-04T08:37:56.463Z,8.88
2022-08-04T08:40:40.274Z,7.20
2022-08-04T08:44:04.701Z,8.52
2022-08-04T08:46:49.002Z,8.48
2022-08-04T08:50:02.765Z,6.13
2022-08-04T08:53:00.535Z,10.55
2022-08-04T08:55:21.780Z,9.35
2022-08-04T08:58:00.570Z,9.50
2022-08-04T09:00:31.618Z,7.45
2022-08-04T09:03:04.489Z,4.65
2022-08-04T09:05:31.647Z,9.10
2022-08-04T09:08:06.313Z,4.95
2022-08-04T09:10:41.753Z,7.63
2022-08-04T09:13:16.790Z,5.68
2022-08-04T09:16:01.684Z,7.68
2022-08-04T09:18:32.779Z,7.80
2022-08-04T09:21:17.890Z,6.18
2022-08-04T09:23:50.315Z,6.22
2022-08-04T09:26:25.928Z,6.78
2022-08-04T09:29:10.944Z,8.75
2022-08-04T09:31:51.395Z,8.48
2022-08-04T09:35:03.564Z,3.63
2022-08-04T09:37:45.596Z,4.25
2022-08-04T09:40:29.016Z,6.15
2022-08-04T09:43:20.177Z,6.03
2022-08-04T09:46:01.176Z,5.05
2022-08-04T09:48:46.352Z,3.17
2022-08-04T09:51:25.719Z,4.38
2022-08-04T09:54:30.497Z,11.88
2022-08-04T09:57:15.402Z,7.88
2022-08-04T09:59:57.242Z,3.85
2022-08-04T10:02:25.773Z,6.20
2022-08-04T10:04:55.135Z,7.53
2022-08-04T10:08:06.965Z,6.07
2022-08-04T10:10:40.576Z,9.70
2022-08-04T10:13:20.667Z,5.80
2022-08-04T10:16:00.914Z,5.03
2022-08-04T10:18:45.594Z,4.78
2022-08-04T10:21:15.616Z,6.53
2022-08-04T10:23:55.281Z,9.82
2022-08-04T10:26:23.155Z,6.15
2022-08-04T10:29:01.220Z,5.45
2022-08-04T10:31:30.056Z,6.13
2022-08-04T10:34:03.141Z,6.22
2022-08-04T10:36:33.050Z,8.00
2022-08-04T10:39:07.679Z,6.05
2022-08-04T10:41:38.979Z,10.43
2022-08-04T10:44:23.619Z,11.35
2022-08-04T10:46:52.815Z,6.72
2022-08-04T10:49:23.398Z,10.15
2022-08-04T10:52:01.910Z,5.25
2022-08-04T10:54:28.378Z,4.90
2022-08-04T10:57:03.718Z,6.43
2022-08-04T10:59:34.839Z,4.95
2022-08-04T11:02:08.550Z,6.80
2022-08-04T11:04:44.336Z,9.68
2022-08-04T11:07:11.395Z,4.50
2022-08-04T11:09:38.431Z,9.63
2022-08-04T11:12:10.592Z,1.77
2022-08-04T11:14:45.374Z,3.83
2022-08-04T11:17:16.721Z,2.28
2022-08-04T11:20:07.671Z,7.40
2022-08-04T11:22:47.906Z,6.32
2022-08-04T11:25:22.403Z,6.90
2022-08-04T11:28:07.850Z,5.93
2022-08-04T11:30:51.053Z,2.83
2022-08-04T11:33:20.343Z,6.63
2022-08-04T11:36:02.111Z,4.00
2022-08-04T11:38:33.449Z,4.50
2022-08-04T11:41:04.347Z,6.30
2022-08-04T11:44:01.934Z,4.43
2022-08-04T11:46:30.734Z,6.93
2022-08-04T11:49:02.977Z,4.20
2022-08-04T11:51:30.656Z,3.92
2022-08-04T11:53:57.156Z,3.75
2022-08-04T11:56:36.509Z,8.57
2022-08-04T11:59:05.177Z,7.32
2022-08-04T12:01:38.463Z,5.57
2022-08-04T12:04:27.141Z,5.70
2022-08-04T12:07:29.567Z,7.97
2022-08-04T12:10:40.980Z,4.30
2022-08-04T12:13:08.811Z,6.30
2022-08-04T12:15:41.031Z,3.55
2022-08-04T12:18:14.127Z,5.32
2022-08-04T12:20:44.982Z,2.38
2022-08-04T12:23:23.198Z,7.60
2022-08-04T12:25:51.595Z,5.88
2022-08-04T12:28:24.275Z,2.65
2022-08-04T12:31:01.275Z,6.15
2022-08-04T12:34:02.694Z,1.95
2022-08-04T12:36:24.977Z,2.75
2022-08-04T12:39:10.605Z,3.03
2022-08-04T12:41:39.801Z,3.80
2022-08-04T12:44:32.629Z,4.90
2022-08-04T12:46:56.045Z,6.78
2022-08-04T12:49:44.397Z,2.28
2022-08-04T12:52:24.804Z,4.43
2022-08-04T12:55:01.176Z,4.07
2022-08-04T12:57:27.823Z,4.15
2022-08-04T12:59:57.093Z,4.90
2022-08-04T13:02:27.200Z,9.48
2022-08-04T13:04:54.444Z,2.20
2022-08-04T13:07:23.077Z,4.78
2022-08-04T13:09:50.247Z,5.53
2022-08-04T13:12:26.003Z,2.63
2022-08-04T13:15:09.865Z,7.20
2022-08-04T13:17:45.680Z,2.78
2022-08-04T13:20:15.835Z,6.60
2022-08-04T13:22:46.395Z,2.35
2022-08-04T13:26:40.382Z,5.20
2022-08-04T13:28:00.131Z,4.22
2022-08-04T13:30:28.308Z,3.50
2022-08-04T13:32:59.796Z,4.53
2022-08-04T13:35:54.758Z,2.88
2022-08-04T13:38:14.292Z,3.85
2022-08-04T13:40:43.978Z,3.50
2022-08-04T13:43:48.434Z,2.60
2022-08-04T13:46:09.811Z,5.72
2022-08-04T13:48:37.558Z,2.88
2022-08-04T13:51:07.667Z,7.10
2022-08-04T13:53:35.272Z,5.90
2022-08-04T13:56:02.870Z,8.27
2022-08-04T13:58:36.612Z,2.20
2022-08-04T14:01:13.184Z,2.95
2022-08-04T14:03:53.338Z,4.30
2022-08-04T14:06:23.778Z,4.25
2022-08-04T14:08:51.889Z,4.47
2022-08-04T14:12:09.340Z,2.03
2022-08-04T14:14:27.364Z,3.45
2022-08-04T14:16:58.073Z,2.55
2022-08-04T14:19:29.365Z,5.20
2022-08-04T14:21:57.632Z,3.40
2022-08-04T14:24:27.895Z,8.63
2022-08-04T14:26:59.216Z,3.92
2022-08-04T14:29:29.348Z,6.72
2022-08-04T14:32:06.218Z,2.67
2022-08-04T14:34:41.236Z,2.20
2022-08-04T14:37:16.806Z,6.40
2022-08-04T14:40:18.714Z,4.38
2022-08-04T14:42:43.772Z,5.95
2022-08-04T14:45:10.340Z,2.28
2022-08-04T14:47:52.701Z,2.58
2022-08-04T14:50:20.095Z,3.80
2022-08-04T14:52:46.600Z,3.78
2022-08-04T14:55:23.804Z,4.32
2022-08-04T14:58:34.353Z,7.60
2022-08-04T15:00:37.329Z,8.93
2022-08-04T15:03:08.620Z,7.20
2022-08-04T15:06:00.373Z,10.13
2022-08-04T15:08:22.855Z,24.02
2022-08-04T15:10:58.882Z,8.18
2022-08-04T15:13:29.464Z,13.82
2022-08-04T15:16:06.298Z,11.40
2022-08-04T15:18:35.020Z,15.70
2022-08-04T15:21:02.404Z,9.02
2022-08-04T15:23:39.354Z,17.52
2022-08-04T15:26:07.928Z,14.02
2022-08-04T15:28:35.929Z,15.38
2022-08-04T15:31:04.075Z,14.73
2022-08-04T15:33:33.773Z,12.63
2022-08-04T15:36:14.415Z,13.40
2022-08-04T15:38:44.990Z,12.88
2022-08-04T15:41:20.114Z,8.63
2022-08-04T15:44:05.298Z,12.70
2022-08-04T15:46:47.423Z,12.30
2022-08-04T15:49:23.544Z,12.63
2022-08-04T15:51:59.533Z,13.93
2022-08-04T15:54:32.741Z,13.45
2022-08-04T15:57:02.065Z,11.80
2022-08-04T15:59:55.592Z,17.23
2022-08-04T16:02:48.598Z,19.80
2022-08-04T16:05:17.798Z,18.35
2022-08-04T16:07:58.528Z,17.42
2022-08-04T16:10:31.082Z,16.83
2022-08-04T16:12:58.770Z,19.88
2022-08-04T16:15:44.043Z,12.48
2022-08-04T16:18:25.494Z,18.92
2022-08-04T16:20:54.348Z,23.45
2022-08-04T16:23:43.773Z,58.43
2022-08-04T16:26:07.218Z,15.27
2022-08-04T16:28:38.072Z,17.87
2022-08-04T16:31:09.302Z,14.25
2022-08-04T16:33:43.861Z,11.05
2022-08-04T16:36:12.434Z,11.77
2022-08-04T16:38:57.957Z,40.65
2022-08-04T16:41:43.160Z,16.30
2022-08-04T16:44:51.568Z,11.23
2022-08-04T16:47:34.558Z,16.30
2022-08-04T16:50:04.980Z,27.98
2022-08-04T16:52:31.395Z,31.58
2022-08-04T16:54:58.648Z,25.23
2022-08-04T16:57:25.094Z,22.40
2022-08-04T16:59:51.647Z,11.23
2022-08-04T17:02:23.782Z,14.18
2022-08-04T17:05:06.949Z,18.77
2022-08-04T17:08:02.230Z,9.88
2022-08-04T17:10:35.959Z,11.65
2022-08-04T17:14:03.927Z,16.05
2022-08-04T17:16:11.749Z,12.55
2022-08-04T17:18:41.137Z,14.95
2022-08-04T17:21:10.671Z,11.43
2022-08-04T17:24:15.111Z,11.13
2022-08-04T17:26:40.267Z,11.43
2022-08-04T17:29:09.018Z,18.23
2022-08-04T17:31:37.871Z,10.77
2022-08-04T17:34:14.143Z,12.30
2022-08-04T17:36:43.813Z,11.93
2022-08-04T17:39:17.056Z,13.70
2022-08-04T17:41:49.149Z,18.10
2022-08-04T17:44:15.821Z,11.63
2022-08-04T17:46:49.737Z,15.48
2022-08-04T17:49:19.368Z,11.07
2022-08-04T17:52:04.247Z,11.00
2022-08-04T17:54:39.552Z,9.68
2022-08-04T17:57:20.992Z,12.90
2022-08-04T17:59:59.444Z,10.23
2022-08-04T18:02:33.235Z,11.60
2022-08-04T18:05:07.661Z,13.38
2022-08-04T18:08:39.726Z,13.10
2022-08-04T18:10:52.182Z,18.17
2022-08-04T18:13:22.401Z,14.23
2022-08-04T18:15:51.115Z,9.07
2022-08-04T18:18:23.617Z,9.85
2022-08-04T18:20:50.527Z,15.90
2022-08-04T18:23:17.152Z,20.52
2022-08-04T18:25:51.072Z,9.15
2022-08-04T18:28:22.604Z,11.85
2022-08-04T18:30:56.114Z,9.07
2022-08-04T18:33:39.462Z,8.75
2022-08-04T18:36:33.963Z,8.30
2022-08-04T18:38:55.711Z,8.75
2022-08-04T18:41:24.630Z,6.07
2022-08-04T18:43:55.812Z,10.38
2022-08-04T18:46:23.892Z,8.88
2022-08-04T18:48:53.776Z,10.40
2022-08-04T18:51:23.714Z,8.40
2022-08-04T18:53:58.170Z,9.60
2022-08-04T18:56:30.109Z,12.45
2022-08-04T18:59:03.131Z,13.75
2022-08-04T19:02:17.230Z,7.85
2022-08-04T19:04:32.875Z,11.35
2022-08-04T19:07:23.381Z,9.20
2022-08-04T19:09:51.058Z,8.38
2022-08-04T19:12:26.430Z,6.50
2022-08-04T19:14:58.006Z,11.00
2022-08-04T19:17:56.888Z,8.05
2022-08-04T19:20:24.314Z,5.63
2022-08-04T19:24:29.899Z,6.70
2022-08-04T19:26:01.312Z,8.82
2022-08-04T19:28:29.305Z,8.40
2022-08-04T19:30:57.164Z,11.65
2022-08-04T19:33:25.374Z,11.45
2022-08-04T19:35:52.782Z,5.60
2022-08-04T19:38:20.715Z,14.02
2022-08-04T19:40:50.689Z,27.85
2022-08-04T19:43:20.856Z,7.10
2022-08-04T19:45:50.187Z,10.40
2022-08-04T19:48:19.467Z,4.60
2022-08-04T19:50:46.627Z,12.98
2022-08-04T19:53:19.676Z,7.43
2022-08-04T19:55:49.411Z,7.25
2022-08-04T19:58:16.932Z,10.77
2022-08-04T20:04:08.328Z,13.77
2022-08-04T20:06:16.239Z,6.07
2022-08-04T20:08:48.157Z,8.30
2022-08-04T20:11:15.958Z,10.00
2022-08-04T20:13:43.057Z,9.30
2022-08-04T20:16:28.998Z,5.07
2022-08-04T20:19:00.773Z,6.83
2022-08-04T20:21:36.583Z,5.47
2022-08-04T20:24:40.010Z,8.43
2022-08-04T20:27:07.645Z,5.88
2022-08-04T20:29:40.385Z,7.70
2022-08-04T20:32:08.813Z,5.60
2022-08-04T20:34:36.318Z,6.80
2022-08-04T20:37:03.122Z,9.57
2022-08-04T20:39:30.478Z,8.83
2022-08-04T20:41:57.085Z,7.17
2022-08-04T20:44:24.283Z,7.23
2022-08-04T20:46:50.882Z,9.33
2022-08-04T20:49:17.342Z,10.00
2022-08-04T20:51:44.067Z,6.60
2022-08-04T20:54:16.570Z,12.83
2022-08-04T20:56:50.616Z,5.43
2022-08-04T20:59:17.774Z,6.20
2022-08-04T21:01:45.482Z,5.23
2022-08-04T21:04:34.376Z,10.97
2022-08-04T21:07:02.497Z,8.27
2022-08-04T21:09:38.020Z,10.33
2022-08-04T21:12:09.867Z,9.03
2022-08-04T21:14:36.306Z,14.50
2022-08-04T21:17:03.998Z,10.77
2022-08-04T21:19:33.867Z,12.33
2022-08-04T21:22:04.805Z,15.93
2022-08-04T21:24:31.228Z,13.77
2022-08-04T21:26:57.702Z,14.53
2022-08-04T21:29:34.712Z,18.50
2022-08-04T21:32:03.864Z,16.43
2022-08-04T21:34:39.153Z,17.03
2022-08-04T21:37:09.012Z,16.63
2022-08-04T21:39:50.838Z,15.77
2022-08-04T21:42:28.877Z,15.33
2022-08-04T21:45:09.058Z,16.23
2022-08-04T21:47:45.777Z,21.10
2022-08-04T21:50:13.247Z,18.20
2022-08-04T21:52:46.607Z,19.40
2022-08-04T21:55:13.027Z,16.00
2022-08-04T21:57:41.897Z,17.17
2022-08-04T22:00:10.698Z,16.70
2022-08-04T22:02:37.518Z,16.27
2022-08-04T22:05:07.302Z,28.10
2022-08-04T22:07:50.360Z,18.97
2022-08-04T22:10:22.569Z,24.00
2022-08-04T22:12:59.522Z,22.70
2022-08-04T22:16:04.496Z,23.53
2022-08-04T22:18:19.539Z,26.80
2022-08-04T22:20:50.952Z,28.37
2022-08-04T22:23:19.265Z,24.17
2022-08-04T22:25:55.900Z,20.53
2022-08-04T22:28:27.888Z,22.00
2022-08-04T22:30:55.313Z,25.00
2022-08-04T22:33:22.870Z,29.37
2022-08-04T22:35:50.040Z,30.83
2022-08-04T22:38:31.679Z,24.20
2022-08-04T22:41:07.089Z,30.93
2022-08-04T22:43:34.770Z,27.50
2022-08-04T22:46:08.007Z,24.47
2022-08-04T22:48:35.551Z,24.90
2022-08-04T22:51:02.615Z,28.73
2022-08-04T22:53:29.660Z,25.73
2022-08-04T22:56:07.673Z,27.20
2022-08-04T22:58:40.275Z,21.73
2022-08-04T23:01:07.440Z,22.67
2022-08-04T23:03:37.361Z,21.53
2022-08-04T23:06:10.943Z,31.90
2022-08-04T23:08:38.593Z,22.47
2022-08-04T23:11:08.598Z,28.67
2022-08-04T23:13:35.970Z,21.53
2022-08-04T23:16:09.942Z,25.20
2022-08-04T23:18:37.100Z,23.73
2022-08-04T23:21:08.635Z,26.57
2022-08-04T23:23:36.345Z,24.20
2022-08-04T23:26:14.575Z,21.70
2022-08-04T23:28:41.352Z,24.97
2022-08-04T23:31:10.299Z,29.63
2022-08-04T23:33:49.191Z,18.30
2022-08-04T23:36:18.166Z,27.30
2022-08-04T23:38:45.238Z,24.03
2022-08-04T23:41:17.206Z,21.13
2022-08-04T23:43:55.542Z,24.83
2022-08-04T23:46:22.454Z,24.57
2022-08-04T23:48:48.988Z,27.10
2022-08-04T23:51:15.776Z,20.97
2022-08-04T23:54:01.823Z,19.43
2022-08-04T23:56:31.882Z,18.70
2022-08-04T23:58:58.410Z,22.80
